KGYY/GYY METAR and TAF weather

Enter ICAO airport designator
Station Type Date Time Source
KGYY METAR 2019/08/24 17:45 UTC NOAA

KGYY 241745Z 05012KT 15SM FEW050 SCT250 23/08 A3027


Station Type Date Time Source
KGYY Decoded METAR 2019/08/24 17:45 UTC NOAA

Station name not available
Aug 24, 2019 - 01:45 PM EDT / 2019.08.24 1745 UTC
Wind: from the NE (050 degrees) at 14 MPH (12 KT):0
Visibility: 15 mile(s):0
Sky conditions: partly cloudy
Temperature: 73 F (23 C)
Dew Point: 46 F (8 C)
Relative Humidity: 38%
Pressure (altimeter): 30.27 in. Hg (1025 hPa)
ob: KGYY 241745Z 05012KT 15SM FEW050 SCT250 23/08 A3027
cycle: 18

Station Type Date Time Source
KGYY TAF 2019/08/24 18:24 UTC NOAA

TAF KGYY 241722Z 2418/2518 06012KT P6SM FEW050 FEW300
FM250400 12008KT P6SM FEW300

Example: see airport list